Time;durP1;ratioP1;P1;durP2;ratioP2;P2;SDS_P1;SDS_P2;PMS_P1;PMS_P2;Temp;Humidity;BMP_temperature;BMP_pressure;BME280_temperature;BME280_humidity;BME280_pressure;Samples;Min_cycle;Max_cycle;Signal;HPM_P1;HPM_P2
2022/03/17 00:01:59;;;;;;;26.73;22.20;;;;;;;;;;5072283;28;20728;-59
2022/03/17 00:04:24;;;;;;;24.60;20.65;;;;;;;;;;5070939;28;20295;-59
2022/03/17 00:06:50;;;;;;;26.63;20.75;;;;;;;;;;5072360;28;20226;-59
2022/03/17 00:09:15;;;;;;;26.00;20.90;;;;;;;;;;5071803;28;20631;-59
2022/03/17 00:11:41;;;;;;;25.40;20.88;;;;;;;;;;5071384;28;20210;-59
2022/03/17 00:14:06;;;;;;;24.73;21.60;;;;;;;;;;5071438;28;20218;-59
2022/03/17 00:16:32;;;;;;;26.95;22.58;;;;;;;;;;5056538;28;20229;-59
2022/03/17 00:18:57;;;;;;;25.23;21.35;;;;;;;;;;5050986;28;20309;-59
2022/03/17 00:21:23;;;;;;;25.90;21.55;;;;;;;;;;5051594;28;20223;-59
2022/03/17 00:23:48;;;;;;;25.17;21.85;;;;;;;;;;5051966;28;20249;-59
2022/03/17 00:26:13;;;;;;;25.25;21.15;;;;;;;;;;5050815;28;20203;-59
2022/03/17 00:28:39;;;;;;;26.55;22.10;;;;;;;;;;5051722;28;20215;-59
2022/03/17 00:31:04;;;;;;;25.55;21.52;;;;;;;;;;5050770;28;20245;-59
2022/03/17 00:33:29;;;;;;;27.70;22.08;;;;;;;;;;5051957;28;20537;-59
2022/03/17 00:35:55;;;;;;;26.60;21.65;;;;;;;;;;5051608;28;20215;-59
2022/03/17 00:38:20;;;;;;;28.20;22.73;;;;;;;;;;5050605;28;20265;-59
2022/03/17 00:40:46;;;;;;;29.17;23.25;;;;;;;;;;5051655;28;20273;-59
2022/03/17 00:43:12;;;;;;;27.60;22.27;;;;;;;;;;5033027;28;20207;-59
2022/03/17 00:45:37;;;;;;;26.25;22.25;;;;;;;;;;5063810;28;20210;-59
2022/03/17 00:48:03;;;;;;;29.40;23.20;;;;;;;;;;5070988;28;20215;-59
2022/03/17 00:50:28;;;;;;;29.20;23.08;;;;;;;;;;5053338;28;20206;-59
2022/03/17 00:52:53;;;;;;;27.50;23.75;;;;;;;;;;5070347;28;20316;-59
2022/03/17 00:55:19;;;;;;;26.20;22.65;;;;;;;;;;5070897;28;20577;-59
2022/03/17 00:57:45;;;;;;;31.33;23.63;;;;;;;;;;5058668;28;20313;-59
2022/03/17 01:00:14;;;;;;;28.58;24.05;;;;;;;;;;5045028;28;20626;-59
2022/03/17 01:02:40;;;;;;;31.27;24.13;;;;;;;;;;5049686;28;20769;-59
2022/03/17 01:05:06;;;;;;;28.80;23.23;;;;;;;;;;5058080;28;20222;-59
2022/03/17 01:07:32;;;;;;;27.92;23.42;;;;;;;;;;5035802;28;20690;-59
2022/03/17 01:09:58;;;;;;;29.05;22.63;;;;;;;;;;5038354;28;20749;-59
2022/03/17 01:12:23;;;;;;;30.38;23.38;;;;;;;;;;5042293;28;20253;-59
2022/03/17 01:14:48;;;;;;;29.42;23.85;;;;;;;;;;5044654;28;20215;-59
2022/03/17 01:17:14;;;;;;;30.05;23.77;;;;;;;;;;5045461;28;20211;-59
2022/03/17 01:19:39;;;;;;;30.88;23.92;;;;;;;;;;5045679;28;20242;-59
2022/03/17 01:22:04;;;;;;;29.02;23.25;;;;;;;;;;5043776;28;20357;-60
2022/03/17 01:24:30;;;;;;;30.15;23.90;;;;;;;;;;5045493;28;20612;-59
2022/03/17 01:26:55;;;;;;;28.27;23.75;;;;;;;;;;5043968;28;20897;-59
2022/03/17 01:29:20;;;;;;;29.58;24.25;;;;;;;;;;5036919;28;20219;-59
2022/03/17 01:31:46;;;;;;;29.50;23.63;;;;;;;;;;5037625;28;20316;-59
2022/03/17 01:34:11;;;;;;;30.02;23.92;;;;;;;;;;5038473;28;20203;-60
2022/03/17 01:36:36;;;;;;;31.33;23.90;;;;;;;;;;5043816;28;20219;-59
2022/03/17 01:39:01;;;;;;;28.77;23.38;;;;;;;;;;5044641;28;20219;-60
2022/03/17 01:41:27;;;;;;;31.70;24.33;;;;;;;;;;5044547;28;20219;-59
2022/03/17 01:43:52;;;;;;;29.23;24.30;;;;;;;;;;5044951;28;20248;-59
2022/03/17 01:46:18;;;;;;;29.63;23.98;;;;;;;;;;5044652;28;20217;-60
2022/03/17 01:48:43;;;;;;;30.35;24.05;;;;;;;;;;5044083;28;20218;-59
2022/03/17 01:51:09;;;;;;;30.00;25.05;;;;;;;;;;5038459;28;20729;-60
2022/03/17 01:53:34;;;;;;;30.33;24.67;;;;;;;;;;5037347;28;20656;-59
2022/03/17 01:55:59;;;;;;;31.50;24.25;;;;;;;;;;5036489;28;20221;-59
2022/03/17 01:58:25;;;;;;;29.70;24.08;;;;;;;;;;5042038;28;20211;-59
2022/03/17 02:00:51;;;;;;;28.95;23.88;;;;;;;;;;5044755;28;20273;-59
2022/03/17 02:03:16;;;;;;;29.75;24.75;;;;;;;;;;5062602;28;20213;-59
2022/03/17 02:05:43;;;;;;;30.40;25.23;;;;;;;;;;5056471;28;20211;-59
2022/03/17 02:08:09;;;;;;;31.73;25.35;;;;;;;;;;5063281;28;20689;-59
2022/03/17 02:13:08;;;;;;;34.83;25.60;;;;;;;;;;5063458;28;20207;-59
2022/03/17 02:13:19;;;;;;;31.30;25.23;;;;;;;;;;5059454;28;20600;-59
2022/03/17 02:15:49;;;;;;;32.67;26.27;;;;;;;;;;5047930;28;20222;-59
2022/03/17 02:18:16;;;;;;;33.10;26.05;;;;;;;;;;5054677;28;20222;-59
2022/03/17 02:20:41;;;;;;;31.75;25.90;;;;;;;;;;5060229;28;20617;-59
2022/03/17 02:25:52;;;;;;;33.63;25.42;;;;;;;;;;5063732;28;20732;-59
2022/03/17 02:28:18;;;;;;;32.70;26.00;;;;;;;;;;5046046;28;20214;-59
2022/03/17 02:30:45;;;;;;;33.95;27.05;;;;;;;;;;5063521;28;20249;-59
2022/03/17 02:33:10;;;;;;;32.45;26.80;;;;;;;;;;5063373;28;20226;-60
2022/03/17 02:35:37;;;;;;;32.97;26.02;;;;;;;;;;5061267;28;20248;-59
2022/03/17 02:38:03;;;;;;;32.80;26.52;;;;;;;;;;5037201;28;20206;-60
2022/03/17 02:40:29;;;;;;;31.10;24.77;;;;;;;;;;5055985;28;20217;-59
2022/03/17 02:42:57;;;;;;;32.15;24.92;;;;;;;;;;5058711;28;20226;-59
2022/03/17 02:45:22;;;;;;;30.35;24.48;;;;;;;;;;5051468;28;20218;-59
2022/03/17 02:47:47;;;;;;;28.95;23.90;;;;;;;;;;5063158;28;20214;-59
2022/03/17 02:50:13;;;;;;;30.45;25.33;;;;;;;;;;5062942;28;20222;-59
2022/03/17 02:52:38;;;;;;;30.23;24.85;;;;;;;;;;5044780;28;20755;-59
2022/03/17 02:55:03;;;;;;;29.02;24.05;;;;;;;;;;5063219;28;20218;-59
2022/03/17 02:57:29;;;;;;;30.50;24.15;;;;;;;;;;5063508;28;20210;-59
2022/03/17 02:59:54;;;;;;;30.17;24.10;;;;;;;;;;5027480;28;20215;-59
2022/03/17 03:02:20;;;;;;;29.02;23.83;;;;;;;;;;5035989;28;20324;-59
2022/03/17 03:04:45;;;;;;;30.15;24.85;;;;;;;;;;5056071;28;20218;-59
2022/03/17 03:07:10;;;;;;;29.85;24.73;;;;;;;;;;5043506;28;20238;-59
2022/03/17 03:09:35;;;;;;;29.92;24.63;;;;;;;;;;5048053;28;20211;-59
2022/03/17 03:12:01;;;;;;;31.80;23.45;;;;;;;;;;5047511;28;20222;-60
2022/03/17 03:14:26;;;;;;;31.08;24.15;;;;;;;;;;5047290;28;20719;-59
2022/03/17 03:16:52;;;;;;;28.67;22.20;;;;;;;;;;5049333;28;20645;-59
2022/03/17 03:19:17;;;;;;;27.08;22.55;;;;;;;;;;5046937;28;20619;-59
2022/03/17 03:21:45;;;;;;;32.10;23.05;;;;;;;;;;5023704;28;20281;-59
2022/03/17 03:24:11;;;;;;;28.02;22.50;;;;;;;;;;5038875;28;21098;-59
2022/03/17 03:26:36;;;;;;;29.42;22.48;;;;;;;;;;5040391;28;20218;-59
2022/03/17 03:29:04;;;;;;;27.05;21.10;;;;;;;;;;5043701;28;20631;-60
2022/03/17 03:31:30;;;;;;;27.70;22.08;;;;;;;;;;5066897;28;20650;-59
2022/03/17 03:33:55;;;;;;;29.00;22.13;;;;;;;;;;5046638;28;20727;-59
2022/03/17 03:39:04;;;;;;;32.25;22.40;;;;;;;;;;5065993;28;20212;-59
2022/03/17 03:41:29;;;;;;;31.13;22.20;;;;;;;;;;5066034;28;20223;-59
2022/03/17 03:43:55;;;;;;;30.38;23.23;;;;;;;;;;5063911;28;20271;-59
2022/03/17 03:46:21;;;;;;;34.75;24.20;;;;;;;;;;5040088;28;20415;-59
2022/03/17 03:48:47;;;;;;;30.73;22.80;;;;;;;;;;5038538;28;20373;-59
2022/03/17 03:51:12;;;;;;;35.08;24.33;;;;;;;;;;5041684;28;20203;-59
2022/03/17 03:54:18;;;;;;;35.60;24.23;;;;;;;;;;5046600;28;20261;-59
2022/03/17 03:56:36;;;;;;;38.05;24.85;;;;;;;;;;5064933;28;20213;-59
2022/03/17 03:59:04;;;;;;;39.03;26.80;;;;;;;;;;5062777;28;20497;-59
2022/03/17 04:01:32;;;;;;;34.35;24.02;;;;;;;;;;5065798;28;20218;-59
2022/03/17 04:03:58;;;;;;;33.75;24.80;;;;;;;;;;5065066;28;20222;-59
2022/03/17 04:06:23;;;;;;;33.20;24.30;;;;;;;;;;5033065;28;20614;-59
2022/03/17 04:08:48;;;;;;;35.28;25.85;;;;;;;;;;5039127;28;20697;-59
2022/03/17 04:11:13;;;;;;;34.90;25.27;;;;;;;;;;5038005;28;20215;-59
2022/03/17 04:13:39;;;;;;;35.17;26.00;;;;;;;;;;5041694;28;20219;-59
2022/03/17 04:16:04;;;;;;;35.47;24.70;;;;;;;;;;5045894;28;20580;-59
2022/03/17 04:18:29;;;;;;;31.13;23.50;;;;;;;;;;5027777;28;20207;-59
2022/03/17 04:20:54;;;;;;;26.52;19.05;;;;;;;;;;5046583;28;20231;-59
2022/03/17 04:23:20;;;;;;;23.55;16.60;;;;;;;;;;5045019;28;20215;-59
2022/03/17 04:25:45;;;;;;;22.83;16.52;;;;;;;;;;5065359;28;20260;-59
2022/03/17 04:28:11;;;;;;;18.38;14.02;;;;;;;;;;5065168;28;20623;-59
2022/03/17 04:30:36;;;;;;;15.48;12.15;;;;;;;;;;5057938;28;20272;-58
2022/03/17 04:33:01;;;;;;;15.80;11.95;;;;;;;;;;5057692;28;20218;-58
2022/03/17 04:35:27;;;;;;;13.50;10.52;;;;;;;;;;5058535;28;20367;-59
2022/03/17 04:37:52;;;;;;;10.90;8.27;;;;;;;;;;5063234;28;20650;-59
2022/03/17 04:40:17;;;;;;;10.40;6.93;;;;;;;;;;5064755;28;20226;-59
2022/03/17 04:42:43;;;;;;;7.45;5.32;;;;;;;;;;5065262;28;20265;-59
2022/03/17 04:45:08;;;;;;;7.88;4.80;;;;;;;;;;5055722;28;20214;-59
2022/03/17 04:47:34;;;;;;;6.50;4.25;;;;;;;;;;5046272;28;20583;-59
2022/03/17 04:49:59;;;;;;;7.80;4.63;;;;;;;;;;5045959;28;20215;-59
2022/03/17 04:55:08;;;;;;;5.55;3.38;;;;;;;;;;5037957;28;20566;-59
2022/03/17 04:57:33;;;;;;;6.03;3.25;;;;;;;;;;5037924;28;20309;-59
2022/03/17 04:59:58;;;;;;;5.72;3.58;;;;;;;;;;5042921;28;20235;-59
2022/03/17 05:02:24;;;;;;;5.63;3.28;;;;;;;;;;5045369;28;20277;-59
2022/03/17 05:04:51;;;;;;;7.28;3.30;;;;;;;;;;5045709;28;20246;-59
2022/03/17 05:07:16;;;;;;;6.13;3.63;;;;;;;;;;5043937;28;20230;-59
2022/03/17 05:09:41;;;;;;;7.68;3.75;;;;;;;;;;5045893;28;20219;-59
2022/03/17 05:12:08;;;;;;;6.38;3.85;;;;;;;;;;5044969;28;20269;-59
2022/03/17 05:14:33;;;;;;;8.02;4.22;;;;;;;;;;5042602;28;20227;-59
2022/03/17 05:16:58;;;;;;;7.70;4.07;;;;;;;;;;5038177;28;20250;-59
2022/03/17 05:19:23;;;;;;;9.15;5.00;;;;;;;;;;5036766;28;20222;-59
2022/03/17 05:21:49;;;;;;;9.00;5.55;;;;;;;;;;5039671;28;20314;-59
2022/03/17 05:24:14;;;;;;;9.95;4.82;;;;;;;;;;5064242;28;20206;-59
2022/03/17 05:26:39;;;;;;;9.32;5.22;;;;;;;;;;5063861;28;20345;-59
2022/03/17 05:29:06;;;;;;;9.90;6.28;;;;;;;;;;5063802;28;20203;-59
2022/03/17 05:31:31;;;;;;;10.68;5.80;;;;;;;;;;5063875;28;20202;-59
2022/03/17 05:33:56;;;;;;;8.80;5.20;;;;;;;;;;5064104;28;20217;-59
2022/03/17 05:36:21;;;;;;;10.93;6.22;;;;;;;;;;5064044;28;21119;-59
2022/03/17 05:38:47;;;;;;;12.82;5.97;;;;;;;;;;5050908;28;20214;-59
2022/03/17 05:41:13;;;;;;;12.60;6.43;;;;;;;;;;5036228;28;20693;-59
2022/03/17 05:43:38;;;;;;;12.73;6.82;;;;;;;;;;5038180;28;20215;-59
2022/03/17 05:46:03;;;;;;;12.30;6.72;;;;;;;;;;5043424;28;20222;-59
2022/03/17 05:48:29;;;;;;;14.93;7.13;;;;;;;;;;5044080;28;20298;-59
2022/03/17 05:50:54;;;;;;;13.93;7.35;;;;;;;;;;5044562;28;20450;-59
2022/03/17 05:53:19;;;;;;;17.52;8.35;;;;;;;;;;5043943;28;20254;-59
2022/03/17 05:55:45;;;;;;;12.63;6.68;;;;;;;;;;5043780;28;20215;-59
2022/03/17 05:58:10;;;;;;;11.38;6.00;;;;;;;;;;5044351;28;20227;-59
2022/03/17 06:00:35;;;;;;;12.98;5.80;;;;;;;;;;5041584;28;20738;-60
2022/03/17 06:03:01;;;;;;;13.60;4.97;;;;;;;;;;5036174;28;20219;-60
2022/03/17 06:05:26;;;;;;;14.25;4.88;;;;;;;;;;5037617;28;20226;-60
2022/03/17 06:07:52;;;;;;;10.90;4.10;;;;;;;;;;5040753;28;20578;-60
2022/03/17 06:10:18;;;;;;;10.98;3.80;;;;;;;;;;5043006;28;20247;-60
2022/03/17 06:12:44;;;;;;;11.98;3.95;;;;;;;;;;5044469;28;20217;-60
2022/03/17 06:15:11;;;;;;;11.02;3.60;;;;;;;;;;5044504;28;20659;-60
2022/03/17 06:17:36;;;;;;;11.35;3.40;;;;;;;;;;5044077;28;20211;-59
2022/03/17 06:20:01;;;;;;;11.75;3.00;;;;;;;;;;5044465;28;20792;-59
2022/03/17 06:22:27;;;;;;;12.95;2.47;;;;;;;;;;5043515;28;20233;-60
2022/03/17 06:24:52;;;;;;;11.20;2.55;;;;;;;;;;5043603;28;20365;-59
2022/03/17 06:27:17;;;;;;;10.95;3.10;;;;;;;;;;5048459;28;20210;-59
2022/03/17 06:29:43;;;;;;;9.77;2.67;;;;;;;;;;5037061;28;20226;-59
2022/03/17 06:32:09;;;;;;;9.88;2.40;;;;;;;;;;5037373;28;20750;-59
2022/03/17 06:34:34;;;;;;;8.18;2.58;;;;;;;;;;5042507;28;20620;-59
2022/03/17 06:36:59;;;;;;;12.18;2.58;;;;;;;;;;5043751;28;20780;-59
2022/03/17 06:39:25;;;;;;;10.85;2.40;;;;;;;;;;5043713;28;20218;-59
2022/03/17 06:41:50;;;;;;;12.75;2.22;;;;;;;;;;5045480;28;20250;-59
2022/03/17 06:44:15;;;;;;;9.32;2.58;;;;;;;;;;5029582;28;20226;-59
2022/03/17 06:46:40;;;;;;;9.68;2.63;;;;;;;;;;5048498;28;20215;-59
2022/03/17 06:49:05;;;;;;;8.32;2.42;;;;;;;;;;5044657;28;20313;-60
2022/03/17 06:51:31;;;;;;;8.15;2.10;;;;;;;;;;5040165;28;20206;-59
2022/03/17 06:53:56;;;;;;;10.75;2.25;;;;;;;;;;5039103;28;20608;-59
2022/03/17 06:56:21;;;;;;;9.95;1.88;;;;;;;;;;5043555;28;20220;-59
2022/03/17 06:58:47;;;;;;;6.55;1.80;;;;;;;;;;5047205;28;20747;-59
2022/03/17 07:01:12;;;;;;;7.35;1.88;;;;;;;;;;5029636;28;20255;-59
2022/03/17 07:03:37;;;;;;;8.70;2.08;;;;;;;;;;5048228;28;20204;-59
2022/03/17 07:06:02;;;;;;;9.20;2.15;;;;;;;;;;5047679;28;20682;-60
2022/03/17 07:08:28;;;;;;;8.80;1.70;;;;;;;;;;5047376;28;20628;-59
2022/03/17 07:10:53;;;;;;;6.53;1.67;;;;;;;;;;5046954;28;20211;-59
2022/03/17 07:13:18;;;;;;;9.98;1.70;;;;;;;;;;5052919;28;20677;-59
2022/03/17 07:15:43;;;;;;;7.82;1.60;;;;;;;;;;5070633;28;20206;-59
2022/03/17 07:18:09;;;;;;;9.98;1.95;;;;;;;;;;5072650;28;20211;-58
2022/03/17 07:20:34;;;;;;;11.02;2.20;;;;;;;;;;5072134;28;20226;-59
2022/03/17 07:22:59;;;;;;;7.75;2.08;;;;;;;;;;5072635;28;20275;-59
2022/03/17 07:25:25;;;;;;;11.88;2.05;;;;;;;;;;5072538;28;20206;-60
2022/03/17 07:27:50;;;;;;;15.23;3.00;;;;;;;;;;5071964;28;20203;-60
2022/03/17 07:30:18;;;;;;;10.88;2.50;;;;;;;;;;5072380;28;20507;-59
2022/03/17 07:32:44;;;;;;;11.13;2.35;;;;;;;;;;5060913;28;20216;-59
2022/03/17 07:35:09;;;;;;;10.02;2.35;;;;;;;;;;5065828;28;20199;-59
2022/03/17 07:37:34;;;;;;;13.18;2.50;;;;;;;;;;5072345;28;20214;-59
2022/03/17 07:40:00;;;;;;;12.68;2.35;;;;;;;;;;5071493;28;20213;-59
2022/03/17 07:42:25;;;;;;;12.07;2.35;;;;;;;;;;5072505;28;20641;-59
2022/03/17 07:44:50;;;;;;;12.50;2.63;;;;;;;;;;5065382;28;20219;-59
2022/03/17 07:47:16;;;;;;;8.75;2.22;;;;;;;;;;5051465;28;20211;-59
2022/03/17 07:49:41;;;;;;;11.52;2.15;;;;;;;;;;5063336;28;20260;-59
2022/03/17 07:52:06;;;;;;;15.25;2.60;;;;;;;;;;5071856;28;20261;-59
2022/03/17 07:54:32;;;;;;;13.38;1.92;;;;;;;;;;5070244;28;20645;-59
2022/03/17 07:56:57;;;;;;;9.30;1.95;;;;;;;;;;5072491;28;20672;-59
2022/03/17 07:59:24;;;;;;;8.75;1.70;;;;;;;;;;5064464;28;20237;-59
2022/03/17 08:01:49;;;;;;;11.18;2.03;;;;;;;;;;5051503;28;20593;-59
2022/03/17 08:04:14;;;;;;;13.55;2.08;;;;;;;;;;5051851;28;20702;-59
2022/03/17 08:06:40;;;;;;;7.43;1.95;;;;;;;;;;5066235;28;20624;-58
2022/03/17 08:09:05;;;;;;;12.25;1.92;;;;;;;;;;5070930;28;20216;-59
2022/03/17 08:11:31;;;;;;;8.50;1.30;;;;;;;;;;5063529;28;20592;-59
2022/03/17 08:13:56;;;;;;;7.57;1.70;;;;;;;;;;5058683;28;20214;-62
2022/03/17 08:16:21;;;;;;;11.88;1.75;;;;;;;;;;5064157;28;20211;-61
2022/03/17 08:18:48;;;;;;;10.00;1.90;;;;;;;;;;5068351;28;20566;-61
2022/03/17 08:21:13;;;;;;;11.60;1.70;;;;;;;;;;5064584;28;20238;-62
2022/03/17 08:23:38;;;;;;;12.15;1.77;;;;;;;;;;5056739;28;20214;-62
2022/03/17 08:26:04;;;;;;;9.75;1.63;;;;;;;;;;5071219;28;20210;-62
2022/03/17 08:28:30;;;;;;;8.68;1.98;;;;;;;;;;5071630;28;20297;-62
2022/03/17 08:30:55;;;;;;;9.30;1.80;;;;;;;;;;5070764;28;20210;-62
2022/03/17 08:33:20;;;;;;;8.30;1.70;;;;;;;;;;5071272;28;20275;-62
2022/03/17 08:35:46;;;;;;;9.63;1.70;;;;;;;;;;5071597;28;20491;-62
2022/03/17 08:38:11;;;;;;;11.15;1.58;;;;;;;;;;5070541;28;20202;-62
2022/03/17 08:40:38;;;;;;;9.43;2.08;;;;;;;;;;5071279;28;20256;-62
2022/03/17 08:43:04;;;;;;;10.00;1.92;;;;;;;;;;5071031;28;20768;-61
2022/03/17 08:50:56;;;;;;;13.55;1.92;;;;;;;;;;5050623;28;20700;-62
2022/03/17 08:53:22;;;;;;;7.70;1.40;;;;;;;;;;5050552;28;20227;-62
2022/03/17 08:55:47;;;;;;;12.93;1.60;;;;;;;;;;5051166;28;20281;-62
2022/03/17 08:58:13;;;;;;;11.55;2.03;;;;;;;;;;5049862;28;20210;-62
2022/03/17 09:00:40;;;;;;;10.75;1.70;;;;;;;;;;5067830;28;20215;-62
2022/03/17 09:03:05;;;;;;;10.63;1.48;;;;;;;;;;5070554;28;20219;-62
2022/03/17 09:05:32;;;;;;;11.65;1.67;;;;;;;;;;5070010;28;20233;-62
2022/03/17 09:07:58;;;;;;;10.70;1.80;;;;;;;;;;5070997;28;20215;-62
2022/03/17 09:10:24;;;;;;;10.98;1.70;;;;;;;;;;5070344;28;20211;-62
2022/03/17 09:12:57;;;;;;;13.57;1.80;;;;;;;;;;5070038;28;20211;-62
2022/03/17 09:15:22;;;;;;;10.73;1.75;;;;;;;;;;5070279;28;20210;-62
2022/03/17 09:17:48;;;;;;;11.30;1.60;;;;;;;;;;5070821;28;20217;-62
2022/03/17 09:20:15;;;;;;;13.73;1.70;;;;;;;;;;5069617;28;20684;-61
2022/03/17 09:22:41;;;;;;;8.57;1.65;;;;;;;;;;5070709;28;20234;-61
2022/03/17 09:25:07;;;;;;;10.68;2.50;;;;;;;;;;5057897;28;20199;-61
2022/03/17 09:27:32;;;;;;;14.32;1.98;;;;;;;;;;5049801;28;20210;-61
2022/03/17 09:29:58;;;;;;;9.93;1.30;;;;;;;;;;5050586;28;20582;-61
2022/03/17 09:32:24;;;;;;;9.75;1.42;;;;;;;;;;5050203;28;20222;-61
2022/03/17 09:34:49;;;;;;;10.80;1.60;;;;;;;;;;5058396;28;20216;-61
2022/03/17 09:37:17;;;;;;;8.27;1.50;;;;;;;;;;5090328;28;20202;-61
2022/03/17 09:39:49;;;;;;;12.77;1.80;;;;;;;;;;5089656;28;20715;-61
2022/03/17 09:42:15;;;;;;;11.45;1.70;;;;;;;;;;5081721;28;20691;-61
2022/03/17 09:44:41;;;;;;;12.00;1.55;;;;;;;;;;5064865;28;20215;-61
2022/03/17 09:47:09;;;;;;;12.13;1.60;;;;;;;;;;5049082;28;20608;-61
2022/03/17 09:49:36;;;;;;;9.45;1.40;;;;;;;;;;5032882;28;20225;-61
2022/03/17 09:52:05;;;;;;;11.15;1.70;;;;;;;;;;5049792;28;20273;-61
2022/03/17 09:54:33;;;;;;;10.15;1.77;;;;;;;;;;5048921;28;20218;-61
2022/03/17 09:56:59;;;;;;;10.20;1.67;;;;;;;;;;5032175;28;20649;-61
2022/03/17 09:59:24;;;;;;;7.50;1.67;;;;;;;;;;5056316;28;20676;-61
2022/03/17 10:01:50;;;;;;;13.73;1.90;;;;;;;;;;5063577;28;20215;-61
2022/03/17 10:04:15;;;;;;;12.05;1.65;;;;;;;;;;5048421;28;20408;-61
2022/03/17 10:06:41;;;;;;;13.15;1.70;;;;;;;;;;5063215;28;20207;-61
2022/03/17 10:09:06;;;;;;;10.70;1.85;;;;;;;;;;5070860;28;20216;-61
2022/03/17 10:11:32;;;;;;;13.82;1.88;;;;;;;;;;5087378;28;20236;-61
2022/03/17 10:13:59;;;;;;;11.98;1.75;;;;;;;;;;5070059;28;20217;-61
2022/03/17 10:16:24;;;;;;;11.13;1.90;;;;;;;;;;5068210;28;20218;-61
2022/03/17 10:18:57;;;;;;;12.65;1.73;;;;;;;;;;5069890;28;20233;-61
2022/03/17 10:21:24;;;;;;;12.45;2.00;;;;;;;;;;5069478;28;20256;-61
2022/03/17 10:23:49;;;;;;;13.05;2.08;;;;;;;;;;5061548;28;20626;-61
2022/03/17 10:26:33;;;;;;;11.98;1.58;;;;;;;;;;5049142;28;20218;-61
2022/03/17 10:29:05;;;;;;;11.82;2.05;;;;;;;;;;5049137;28;20219;-61
2022/03/17 10:31:30;;;;;;;11.43;1.60;;;;;;;;;;5049566;28;20794;-61
2022/03/17 10:33:57;;;;;;;10.18;1.70;;;;;;;;;;5049722;28;20302;-61
2022/03/17 10:36:22;;;;;;;7.68;1.42;;;;;;;;;;5030968;28;20206;-61
2022/03/17 10:38:49;;;;;;;8.25;1.80;;;;;;;;;;5066420;28;20575;-61
2022/03/17 10:41:14;;;;;;;10.75;1.50;;;;;;;;;;5069236;28;20642;-61
2022/03/17 10:43:41;;;;;;;8.82;1.60;;;;;;;;;;5068875;28;20214;-61
2022/03/17 10:46:07;;;;;;;8.90;1.30;;;;;;;;;;5051848;28;20455;-61
2022/03/17 10:48:32;;;;;;;7.68;1.75;;;;;;;;;;5049509;28;20222;-61
2022/03/17 10:50:57;;;;;;;8.57;1.10;;;;;;;;;;5048878;28;20219;-61
2022/03/17 10:53:27;;;;;;;8.35;1.40;;;;;;;;;;5048695;28;20230;-61
2022/03/17 10:55:52;;;;;;;8.68;1.42;;;;;;;;;;5049608;28;20215;-61
2022/03/17 10:58:18;;;;;;;6.90;1.20;;;;;;;;;;5048092;28;20261;-61
2022/03/17 11:00:45;;;;;;;9.68;1.40;;;;;;;;;;5049466;28;20690;-61
2022/03/17 11:03:11;;;;;;;9.27;1.30;;;;;;;;;;5048752;28;20735;-61
2022/03/17 11:05:36;;;;;;;12.05;1.70;;;;;;;;;;5030941;28;20261;-61
2022/03/17 11:08:02;;;;;;;8.35;1.63;;;;;;;;;;5047770;28;20237;-61
2022/03/17 11:10:28;;;;;;;6.78;1.85;;;;;;;;;;5075970;28;20226;-61
2022/03/17 11:12:53;;;;;;;6.07;1.40;;;;;;;;;;5070625;28;20233;-62
2022/03/17 11:15:25;;;;;;;9.35;1.30;;;;;;;;;;5088395;28;20206;-61
2022/03/17 11:17:50;;;;;;;11.02;1.65;;;;;;;;;;5071304;28;20595;-61
2022/03/17 11:20:17;;;;;;;7.93;1.50;;;;;;;;;;5088454;28;20202;-61
2022/03/17 11:22:44;;;;;;;7.45;1.77;;;;;;;;;;5089035;28;20578;-61
2022/03/17 11:25:15;;;;;;;9.32;1.67;;;;;;;;;;5044798;28;20290;-61
2022/03/17 11:27:47;;;;;;;12.25;1.88;;;;;;;;;;5049111;28;20238;-61
2022/03/17 11:30:13;;;;;;;7.95;1.75;;;;;;;;;;5051809;28;20229;-61
2022/03/17 11:32:38;;;;;;;9.60;1.60;;;;;;;;;;5052158;28;20215;-61
2022/03/17 11:35:10;;;;;;;7.82;1.25;;;;;;;;;;5034108;28;20215;-61
2022/03/17 11:37:35;;;;;;;10.05;1.65;;;;;;;;;;5052216;28;20781;-61
2022/03/17 11:40:02;;;;;;;8.48;1.17;;;;;;;;;;5051336;28;20294;-61
2022/03/17 11:42:32;;;;;;;4.53;1.10;;;;;;;;;;5052902;28;20524;-61
2022/03/17 11:45:01;;;;;;;6.05;1.35;;;;;;;;;;5060244;28;20238;-61
2022/03/17 11:47:27;;;;;;;6.15;1.50;;;;;;;;;;5071675;28;20301;-62
2022/03/17 11:49:52;;;;;;;5.60;1.23;;;;;;;;;;5061814;28;20289;-61
2022/03/17 11:52:18;;;;;;;5.30;1.30;;;;;;;;;;5071574;28;20234;-61
2022/03/17 11:54:43;;;;;;;7.22;1.45;;;;;;;;;;5071913;28;20207;-61
2022/03/17 11:57:08;;;;;;;7.07;1.25;;;;;;;;;;5071952;28;20513;-61
2022/03/17 11:59:49;;;;;;;5.80;1.38;;;;;;;;;;5064090;28;20222;-61
2022/03/17 12:02:16;;;;;;;5.72;1.70;;;;;;;;;;5050939;28;20316;-61
2022/03/17 12:04:46;;;;;;;9.40;1.60;;;;;;;;;;5052080;28;20306;-61
2022/03/17 12:07:13;;;;;;;5.65;1.35;;;;;;;;;;5051476;28;20733;-61
2022/03/17 12:09:38;;;;;;;8.00;1.40;;;;;;;;;;5051298;28;20215;-61
2022/03/17 12:12:16;;;;;;;6.32;1.50;;;;;;;;;;5051488;28;20217;-61
2022/03/17 12:14:48;;;;;;;7.30;1.75;;;;;;;;;;5051040;28;20945;-61
2022/03/17 12:17:13;;;;;;;9.68;1.58;;;;;;;;;;5051502;28;20607;-61
2022/03/17 12:19:40;;;;;;;7.20;1.35;;;;;;;;;;5051778;28;20217;-61
2022/03/17 12:22:07;;;;;;;8.75;1.80;;;;;;;;;;5050364;28;20227;-61
2022/03/17 12:24:34;;;;;;;6.60;1.08;;;;;;;;;;5063008;28;20210;-62
2022/03/17 12:27:03;;;;;;;5.53;1.48;;;;;;;;;;5051831;28;20218;-61
2022/03/17 12:29:28;;;;;;;8.50;1.27;;;;;;;;;;5050677;28;20211;-61
2022/03/17 12:31:53;;;;;;;9.55;1.42;;;;;;;;;;5033587;28;20219;-60
2022/03/17 12:34:19;;;;;;;6.07;1.30;;;;;;;;;;5051141;28;20211;-60
2022/03/17 12:36:44;;;;;;;6.55;1.30;;;;;;;;;;5050537;28;20577;-60
2022/03/17 12:39:09;;;;;;;5.38;1.42;;;;;;;;;;5033007;28;20207;-60
2022/03/17 12:41:34;;;;;;;4.60;1.30;;;;;;;;;;5050754;28;20596;-60
2022/03/17 12:44:00;;;;;;;6.93;1.50;;;;;;;;;;5032877;28;20357;-60
2022/03/17 12:46:26;;;;;;;5.85;1.30;;;;;;;;;;5055391;28;20206;-60
2022/03/17 12:49:04;;;;;;;5.28;1.60;;;;;;;;;;5071261;28;20222;-60
2022/03/17 12:51:30;;;;;;;6.43;1.73;;;;;;;;;;5070049;28;20210;-60
2022/03/17 12:53:59;;;;;;;9.82;1.65;;;;;;;;;;5071093;28;20610;-60
2022/03/17 12:56:24;;;;;;;4.72;1.30;;;;;;;;;;5052988;28;20221;-60
2022/03/17 12:58:49;;;;;;;7.82;1.50;;;;;;;;;;5068541;28;20214;-60
2022/03/17 13:01:15;;;;;;;5.63;1.40;;;;;;;;;;5050510;28;20298;-60
2022/03/17 13:03:40;;;;;;;5.47;1.40;;;;;;;;;;5050686;28;20223;-60
2022/03/17 13:08:49;;;;;;;6.55;1.33;;;;;;;;;;5050831;28;20225;-60
2022/03/17 13:16:42;;;;;;;5.38;1.10;;;;;;;;;;5050488;28;20242;-60
2022/03/17 13:19:08;;;;;;;4.55;1.00;;;;;;;;;;5049712;28;20235;-60
2022/03/17 13:21:34;;;;;;;6.32;1.60;;;;;;;;;;5050230;28;20225;-60
2022/03/17 13:23:59;;;;;;;5.57;1.50;;;;;;;;;;5041471;28;20210;-60
2022/03/17 13:26:25;;;;;;;5.75;1.33;;;;;;;;;;5034292;28;20207;-60
2022/03/17 13:29:01;;;;;;;7.68;1.55;;;;;;;;;;5050647;28;20345;-60
2022/03/17 13:31:33;;;;;;;5.80;1.67;;;;;;;;;;5050227;28;20290;-60
2022/03/17 13:33:58;;;;;;;6.80;1.70;;;;;;;;;;5032161;28;20216;-60
2022/03/17 13:36:24;;;;;;;5.93;1.30;;;;;;;;;;5031833;28;20207;-60
2022/03/17 13:38:49;;;;;;;9.40;1.85;;;;;;;;;;5049733;28;20215;-60
2022/03/17 13:41:18;;;;;;;4.35;1.42;;;;;;;;;;5050019;28;20701;-60
2022/03/17 13:43:44;;;;;;;8.40;1.52;;;;;;;;;;5050682;28;20215;-60
2022/03/17 13:46:17;;;;;;;7.63;1.75;;;;;;;;;;5066946;28;20206;-60
2022/03/17 13:48:42;;;;;;;9.40;1.40;;;;;;;;;;5070260;28;20361;-60
2022/03/17 13:51:07;;;;;;;4.20;1.50;;;;;;;;;;5069019;28;20688;-60
2022/03/17 13:53:33;;;;;;;4.85;1.80;;;;;;;;;;5069156;28;20317;-60
2022/03/17 13:55:59;;;;;;;5.85;1.60;;;;;;;;;;5073591;28;20221;-60
2022/03/17 13:58:43;;;;;;;4.90;1.30;;;;;;;;;;5071913;28;20206;-60
2022/03/17 14:01:09;;;;;;;9.32;1.80;;;;;;;;;;5048877;28;20211;-60
2022/03/17 14:03:34;;;;;;;7.63;1.88;;;;;;;;;;5050231;28;20226;-60
2022/03/17 14:06:14;;;;;;;7.25;1.80;;;;;;;;;;5050209;28;20229;-60
2022/03/17 14:08:41;;;;;;;8.02;1.90;;;;;;;;;;5048845;28;20218;-60
2022/03/17 14:11:07;;;;;;;5.78;1.65;;;;;;;;;;5049612;28;20211;-60
2022/03/17 14:13:33;;;;;;;6.72;1.52;;;;;;;;;;5050232;28;20214;-60
2022/03/17 14:15:58;;;;;;;6.07;1.60;;;;;;;;;;5049397;28;20290;-60
2022/03/17 14:18:24;;;;;;;4.13;1.30;;;;;;;;;;5049348;28;20207;-60
2022/03/17 14:20:49;;;;;;;10.50;1.67;;;;;;;;;;5050075;28;20215;-60
2022/03/17 14:25:59;;;;;;;5.80;1.70;;;;;;;;;;5056263;28;20269;-60
2022/03/17 14:28:24;;;;;;;7.32;1.77;;;;;;;;;;5030916;28;20211;-60
2022/03/17 14:30:49;;;;;;;8.52;1.52;;;;;;;;;;5049924;28;20685;-60
2022/03/17 14:33:15;;;;;;;6.22;1.60;;;;;;;;;;5049332;28;20298;-59
2022/03/17 14:35:40;;;;;;;6.03;1.42;;;;;;;;;;5048659;28;20298;-60
2022/03/17 14:38:05;;;;;;;7.10;1.52;;;;;;;;;;5031168;28;20226;-60
2022/03/17 14:40:31;;;;;;;7.40;1.55;;;;;;;;;;5049871;28;20641;-59
2022/03/17 14:42:57;;;;;;;7.75;1.50;;;;;;;;;;5048950;28;20242;-60
2022/03/17 14:45:22;;;;;;;9.77;1.88;;;;;;;;;;5049259;28;20294;-60
2022/03/17 14:47:48;;;;;;;9.57;1.60;;;;;;;;;;5049653;28;20298;-60
2022/03/17 14:50:13;;;;;;;8.45;1.85;;;;;;;;;;5048627;28;20259;-60